Time;durP1;ratioP1;P1;durP2;ratioP2;P2;SDS_P1;SDS_P2;PMS_P1;PMS_P2;Temp;Humidity;BMP_temperature;BMP_pressure;BME280_temperature;BME280_humidity;BME280_pressure;Samples;Min_cycle;Max_cycle;Signal;HPM_P1;HPM_P2
2022/04/19 00:00:59;;;;;;;2.85;2.65;;;;;;;3.35;74.47;94446.06;5020591;28;20201;-65
2022/04/19 00:03:27;;;;;;;2.63;2.47;;;;;;;3.35;74.25;94444.16;5020150;28;20198;-65
2022/04/19 00:05:55;;;;;;;2.38;2.28;;;;;;;3.32;74.35;94439.34;5020580;28;20222;-65
2022/04/19 00:08:23;;;;;;;2.85;2.65;;;;;;;3.30;73.86;94444.28;5037390;28;20630;-65
2022/04/19 00:10:52;;;;;;;2.80;2.70;;;;;;;3.29;73.89;94433.72;5020434;28;20195;-65
2022/04/19 00:13:21;;;;;;;2.70;2.50;;;;;;;3.26;74.36;94434.38;5020379;28;20305;-65
2022/04/19 00:15:49;;;;;;;3.20;3.00;;;;;;;3.24;74.22;94428.47;5020335;28;20191;-65
2022/04/19 00:18:19;;;;;;;3.35;3.15;;;;;;;3.23;74.18;94424.94;5037526;28;20205;-65
2022/04/19 00:20:49;;;;;;;4.13;3.83;;;;;;;3.20;74.27;94413.88;5036535;28;20242;-65
2022/04/19 00:23:17;;;;;;;5.38;4.97;;;;;;;3.20;74.48;94422.84;5020199;28;20203;-65
2022/04/19 00:25:48;;;;;;;5.00;4.57;;;;;;;3.20;74.43;94420.13;5037519;28;20194;-65
2022/04/19 00:28:17;;;;;;;4.18;3.88;;;;;;;3.21;74.56;94416.25;5019650;28;20221;-65
2022/04/19 00:30:47;;;;;;;3.72;3.47;;;;;;;3.22;74.47;94417.84;5036522;28;20199;-65
2022/04/19 00:33:15;;;;;;;3.10;2.90;;;;;;;3.24;74.49;94412.09;5037369;28;20218;-65
2022/04/19 00:35:44;;;;;;;2.90;2.70;;;;;;;3.18;74.83;94408.72;5019976;28;20194;-65
2022/04/19 00:38:12;;;;;;;2.92;2.72;;;;;;;3.19;74.51;94414.97;5036880;28;20187;-65
2022/04/19 00:40:40;;;;;;;3.10;2.90;;;;;;;3.10;74.69;94415.78;5037256;28;20197;-65
2022/04/19 00:43:08;;;;;;;3.10;2.83;;;;;;;3.07;74.85;94404.72;5037141;28;20193;-65
2022/04/19 00:45:36;;;;;;;2.72;2.53;;;;;;;3.10;74.80;94399.44;5036883;28;20290;-65
2022/04/19 00:48:09;;;;;;;3.10;2.90;;;;;;;3.07;74.90;94410.97;5036930;28;20210;-65
2022/04/19 00:50:38;;;;;;;3.05;2.85;;;;;;;3.05;75.03;94406.97;5037013;28;20201;-65
2022/04/19 00:53:06;;;;;;;2.80;2.60;;;;;;;3.03;75.18;94401.84;5036737;28;20183;-65
2022/04/19 00:55:35;;;;;;;2.50;2.40;;;;;;;3.07;74.97;94410.97;5036597;28;20187;-65
2022/04/19 00:58:06;;;;;;;2.70;2.58;;;;;;;3.06;74.98;94398.47;5035994;28;20198;-65
2022/04/19 01:00:35;;;;;;;3.13;2.92;;;;;;;3.06;75.45;94392.25;5019651;28;20203;-65
2022/04/19 01:03:03;;;;;;;3.22;3.03;;;;;;;3.05;75.38;94396.88;5037135;28;20266;-65
2022/04/19 01:05:33;;;;;;;3.13;2.92;;;;;;;3.05;75.06;94401.50;5019035;28;20198;-65
2022/04/19 01:08:03;;;;;;;2.92;2.72;;;;;;;3.02;75.43;94394.81;5036537;28;20219;-67
2022/04/19 01:10:31;;;;;;;2.78;2.67;;;;;;;3.01;75.27;94400.56;5019019;28;20198;-66
2022/04/19 01:15:47;;;;;;;3.05;2.85;;;;;;;3.02;75.56;94389.34;5019252;28;20352;-66
2022/04/19 01:18:20;;;;;;;3.88;3.67;;;;;;;3.05;75.21;94393.34;5036147;28;20183;-66
2022/04/19 01:20:50;;;;;;;4.10;3.90;;;;;;;3.05;75.13;94385.16;5018442;28;20288;-66
2022/04/19 01:23:23;;;;;;;4.75;4.45;;;;;;;3.04;75.32;94391.75;5036046;28;20641;-65
2022/04/19 01:25:51;;;;;;;4.63;4.32;;;;;;;3.04;75.33;94387.09;5018850;28;20202;-65
2022/04/19 01:28:22;;;;;;;4.60;4.30;;;;;;;3.05;75.65;94382.44;5035111;28;20210;-65
2022/04/19 01:30:54;;;;;;;4.78;4.47;;;;;;;3.04;74.98;94392.53;5035834;28;20683;-65
2022/04/19 01:33:23;;;;;;;4.70;4.40;;;;;;;2.99;75.44;94387.28;5018855;28;20192;-66
2022/04/19 01:35:51;;;;;;;5.15;4.75;;;;;;;2.97;75.31;94384.06;5018636;28;20191;-65
2022/04/19 01:38:19;;;;;;;5.53;5.03;;;;;;;2.95;75.92;94382.78;5035950;28;20198;-65
2022/04/19 01:40:47;;;;;;;4.88;4.47;;;;;;;2.98;75.98;94384.84;5035778;28;20717;-65
2022/04/19 01:43:15;;;;;;;4.30;4.00;;;;;;;2.99;75.41;94383.75;5035037;28;20198;-66
2022/04/19 01:45:44;;;;;;;4.05;3.75;;;;;;;2.99;75.77;94386.47;5035825;28;20184;-65
2022/04/19 01:48:12;;;;;;;3.78;3.47;;;;;;;2.94;75.61;94387.44;5035660;28;20297;-65
2022/04/19 01:50:41;;;;;;;3.40;3.20;;;;;;;2.94;76.29;94390.16;5018784;28;20209;-65
2022/04/19 01:53:09;;;;;;;3.72;3.53;;;;;;;3.02;76.12;94392.09;5018096;28;20198;-65
2022/04/19 01:55:38;;;;;;;3.33;3.13;;;;;;;3.10;75.36;94385.03;5017996;28;20209;-66
2022/04/19 01:58:06;;;;;;;3.25;3.05;;;;;;;3.10;75.34;94393.19;5018229;28;20195;-65
2022/04/19 02:00:34;;;;;;;4.38;4.07;;;;;;;3.06;75.26;94390.31;5018283;28;20198;-66
2022/04/19 02:03:03;;;;;;;4.10;3.90;;;;;;;3.01;75.19;94389.66;5035582;28;20198;-66
2022/04/19 02:05:31;;;;;;;3.90;3.70;;;;;;;3.02;75.49;94383.09;5018327;28;20226;-66
2022/04/19 02:07:59;;;;;;;3.80;3.60;;;;;;;3.02;75.26;94383.91;5035446;28;20200;-66
2022/04/19 02:10:27;;;;;;;3.83;3.63;;;;;;;2.99;75.47;94376.38;5035459;28;20186;-66
2022/04/19 02:12:57;;;;;;;4.10;3.90;;;;;;;3.00;75.62;94377.16;5035230;28;20182;-66
2022/04/19 02:15:25;;;;;;;3.90;3.70;;;;;;;3.00;75.51;94385.34;5018083;28;20194;-66
2022/04/19 02:17:53;;;;;;;4.10;3.90;;;;;;;2.98;75.78;94384.84;5018057;28;20536;-66
2022/04/19 02:20:24;;;;;;;4.10;3.90;;;;;;;2.96;75.81;94379.72;5018030;28;20190;-66
2022/04/19 02:22:52;;;;;;;4.85;4.55;;;;;;;2.97;76.02;94385.97;5015303;28;20214;-66
2022/04/19 02:25:24;;;;;;;5.18;4.88;;;;;;;2.96;75.53;94387.09;5015612;28;20191;-66
2022/04/19 02:27:55;;;;;;;5.45;5.15;;;;;;;2.96;76.27;94384.38;4998321;28;20199;-66
2022/04/19 02:30:25;;;;;;;5.40;5.00;;;;;;;2.96;75.86;94387.91;5014634;28;20199;-66
2022/04/19 02:32:55;;;;;;;5.07;4.75;;;;;;;2.93;75.98;94383.09;5015632;28;20179;-66
2022/04/19 02:35:26;;;;;;;4.90;4.60;;;;;;;2.95;75.98;94383.59;5015558;28;20234;-66
2022/04/19 02:37:59;;;;;;;4.95;4.65;;;;;;;2.96;76.04;94384.38;4998196;28;20195;-66
2022/04/19 02:40:30;;;;;;;4.93;4.63;;;;;;;2.94;76.10;94381.16;5014715;28;20179;-66
2022/04/19 02:43:00;;;;;;;4.80;4.50;;;;;;;2.93;76.22;94383.09;5015440;28;20222;-66
2022/04/19 02:45:30;;;;;;;4.40;4.10;;;;;;;2.95;76.10;94388.25;5015130;28;20238;-66
2022/04/19 02:48:04;;;;;;;5.38;5.00;;;;;;;2.91;76.36;94388.09;5014970;28;20209;-66
2022/04/19 02:50:33;;;;;;;5.32;4.93;;;;;;;2.96;76.36;94387.09;4998158;28;20238;-66
2022/04/19 02:53:02;;;;;;;5.40;5.00;;;;;;;2.98;76.13;94393.03;4998366;28;20277;-66
2022/04/19 02:55:30;;;;;;;5.93;5.53;;;;;;;3.00;76.64;94390.78;4998412;28;20210;-66
2022/04/19 02:57:59;;;;;;;5.82;5.43;;;;;;;3.07;76.59;94397.34;5014174;28;20195;-66
2022/04/19 03:00:31;;;;;;;5.18;4.78;;;;;;;3.12;76.38;94394.47;4998007;28;20203;-66
2022/04/19 03:02:58;;;;;;;4.80;4.50;;;;;;;3.16;76.41;94402.00;5014921;28;20262;-66
2022/04/19 03:05:26;;;;;;;4.65;4.35;;;;;;;3.20;76.28;94402.97;4998083;28;20202;-66
2022/04/19 03:07:54;;;;;;;4.70;4.40;;;;;;;3.17;76.30;94414.50;5015169;28;20187;-66
2022/04/19 03:10:23;;;;;;;4.88;4.57;;;;;;;3.12;76.17;94407.28;4997826;28;20234;-66
2022/04/19 03:12:51;;;;;;;4.65;4.35;;;;;;;3.15;76.38;94412.09;4998406;28;20207;-69
2022/04/19 03:15:20;;;;;;;4.60;4.30;;;;;;;3.14;76.17;94411.28;4998084;28;20210;-67
2022/04/19 03:17:49;;;;;;;4.70;4.30;;;;;;;3.09;76.06;94413.41;5014899;28;20179;-67
2022/04/19 03:20:16;;;;;;;4.85;4.55;;;;;;;3.07;76.45;94413.69;5013790;28;20203;-66
2022/04/19 03:28:17;;;;;;;5.35;5.00;;;;;;;3.18;75.82;94419.63;5034396;28;20171;-67
2022/04/19 03:30:46;;;;;;;5.20;4.80;;;;;;;3.14;75.69;94422.19;5034724;28;20175;-66
2022/04/19 03:33:16;;;;;;;4.90;4.60;;;;;;;3.11;75.62;94424.75;5034404;28;20450;-69
2022/04/19 03:35:44;;;;;;;4.32;4.03;;;;;;;3.05;76.21;94432.31;5018179;28;20187;-68
2022/04/19 03:38:13;;;;;;;3.80;3.60;;;;;;;3.02;76.12;94427.50;5035678;28;20194;-68
2022/04/19 03:40:42;;;;;;;4.43;4.13;;;;;;;3.07;76.55;94431.97;5018249;28;20210;-68
2022/04/19 03:43:10;;;;;;;5.53;5.22;;;;;;;3.10;76.59;94436.78;5037169;28;20534;-68
2022/04/19 03:45:38;;;;;;;6.85;6.35;;;;;;;3.17;76.53;94434.38;5037992;28;20222;-68
2022/04/19 03:48:07;;;;;;;7.85;7.22;;;;;;;3.23;75.83;94435.84;5037911;28;20205;-68
2022/04/19 03:50:37;;;;;;;5.07;4.68;;;;;;;3.26;75.73;94440.63;5038352;28;20214;-68
2022/04/19 03:53:05;;;;;;;4.38;4.07;;;;;;;3.24;75.40;94440.16;5038195;28;20202;-69
2022/04/19 03:55:33;;;;;;;3.85;3.65;;;;;;;3.24;75.45;94442.09;5038241;28;20202;-66
2022/04/19 03:58:02;;;;;;;4.47;4.18;;;;;;;3.27;75.67;94444.97;5037945;28;20198;-66
2022/04/19 04:00:31;;;;;;;4.38;4.13;;;;;;;3.25;76.27;94447.19;5037304;28;20266;-66
2022/04/19 04:03:01;;;;;;;5.57;5.18;;;;;;;3.22;75.53;94447.03;5038146;28;20269;-69
2022/04/19 04:05:30;;;;;;;7.38;6.78;;;;;;;3.22;75.65;94445.09;5020572;28;20195;-68
2022/04/19 04:08:03;;;;;;;6.85;6.35;;;;;;;3.22;75.39;94452.50;5038495;28;20182;-70
2022/04/19 04:10:31;;;;;;;7.45;6.85;;;;;;;3.19;75.80;94440.28;5020761;28;20384;-71
2022/04/19 04:13:00;;;;;;;7.43;6.82;;;;;;;3.17;75.88;94453.47;5020667;28;20296;-71
2022/04/19 04:15:28;;;;;;;7.57;6.97;;;;;;;3.16;75.38;94460.03;5020522;28;20194;-67
2022/04/19 04:17:56;;;;;;;7.47;6.90;;;;;;;3.13;75.04;94452.50;5036870;28;20198;-68
2022/04/19 04:20:24;;;;;;;7.88;7.28;;;;;;;3.10;75.51;94453.13;5020612;28;20281;-68
2022/04/19 04:22:52;;;;;;;7.93;7.32;;;;;;;3.09;75.24;94459.72;5020434;28;20203;-68
2022/04/19 04:25:23;;;;;;;7.82;7.22;;;;;;;3.08;75.16;94461.63;5020189;28;20685;-68
2022/04/19 04:27:52;;;;;;;7.13;6.63;;;;;;;3.12;75.54;94461.78;5019786;28;20198;-68
2022/04/19 04:30:20;;;;;;;6.60;6.10;;;;;;;3.11;75.21;94458.25;5019966;28;20237;-68
2022/04/19 04:32:48;;;;;;;6.30;5.80;;;;;;;3.13;76.00;94464.19;5019893;28;20194;-68
2022/04/19 04:35:16;;;;;;;6.47;5.97;;;;;;;3.17;75.63;94466.28;5019790;28;20302;-68
2022/04/19 04:37:44;;;;;;;6.45;6.03;;;;;;;3.24;75.39;94467.41;5036196;28;20195;-68
2022/04/19 04:40:13;;;;;;;6.63;6.13;;;;;;;3.30;75.44;94477.00;5019532;28;20252;-68
2022/04/19 04:42:46;;;;;;;5.80;5.40;;;;;;;3.27;75.19;94468.69;5020019;28;20202;-69
2022/04/19 04:45:15;;;;;;;5.28;4.88;;;;;;;3.22;74.74;94472.38;5036379;28;20198;-68
2022/04/19 04:50:28;;;;;;;4.55;4.25;;;;;;;3.32;74.99;94476.69;5019724;28;20211;-68
2022/04/19 04:52:57;;;;;;;5.00;4.70;;;;;;;3.36;75.49;94483.09;5019805;28;20240;-68
2022/04/19 04:55:25;;;;;;;4.30;4.03;;;;;;;3.40;74.52;94478.63;5018875;28;20206;-68
2022/04/19 04:57:57;;;;;;;4.57;4.28;;;;;;;3.40;74.26;94477.81;5035719;28;20202;-68
2022/04/19 05:00:26;;;;;;;4.65;4.35;;;;;;;3.45;74.73;94481.19;5020189;28;20289;-68
2022/04/19 05:02:54;;;;;;;4.55;4.25;;;;;;;3.50;75.14;94481.00;5036486;28;20221;-68
2022/04/19 05:05:21;;;;;;;4.68;4.38;;;;;;;3.56;75.07;94473.47;5036685;28;20202;-68
2022/04/19 05:07:51;;;;;;;4.82;4.53;;;;;;;3.60;74.87;94479.88;5036817;28;20214;-68
2022/04/19 05:10:20;;;;;;;4.57;4.28;;;;;;;3.67;74.79;94477.47;5035830;28;20221;-68
2022/04/19 05:12:48;;;;;;;4.28;3.97;;;;;;;3.68;73.99;94489.19;5036163;28;20224;-68
2022/04/19 05:15:19;;;;;;;4.40;4.10;;;;;;;3.64;74.11;94482.78;5035425;28;20207;-68
2022/04/19 05:17:47;;;;;;;3.95;3.70;;;;;;;3.66;74.65;94484.03;5019080;28;20195;-68
2022/04/19 05:20:16;;;;;;;4.35;4.05;;;;;;;3.63;74.18;94479.22;5018749;28;20606;-68
2022/04/19 05:22:46;;;;;;;3.78;3.58;;;;;;;3.58;74.19;94479.41;5031168;28;20269;-68
2022/04/19 05:25:15;;;;;;;4.03;3.83;;;;;;;3.56;74.27;94487.13;5032152;28;20286;-68
2022/04/19 05:27:43;;;;;;;4.18;3.88;;;;;;;3.56;75.09;94487.91;4999151;28;20211;-68
2022/04/19 05:30:11;;;;;;;4.45;4.05;;;;;;;3.54;74.88;94484.69;5031635;28;20555;-68
2022/04/19 05:32:41;;;;;;;4.05;3.83;;;;;;;3.57;74.30;94486.78;5031877;28;20195;-68
2022/04/19 05:35:09;;;;;;;4.10;3.80;;;;;;;3.54;74.04;94494.81;5032309;28;20209;-68
2022/04/19 05:37:37;;;;;;;4.65;4.32;;;;;;;3.50;74.19;94488.41;5031783;28;20188;-68
2022/04/19 05:40:06;;;;;;;5.40;5.00;;;;;;;3.48;74.20;94493.34;5031824;28;20207;-68
2022/04/19 05:42:35;;;;;;;5.10;4.75;;;;;;;3.42;74.27;94491.94;5015232;28;20203;-68
2022/04/19 05:45:03;;;;;;;5.05;4.72;;;;;;;3.36;74.80;94500.25;5032172;28;20206;-68
2022/04/19 05:47:33;;;;;;;5.13;4.72;;;;;;;3.41;75.46;94496.56;4998750;28;20198;-68
2022/04/19 05:50:02;;;;;;;4.97;4.68;;;;;;;3.45;75.10;94504.91;5031193;28;20219;-68
2022/04/19 05:52:30;;;;;;;5.03;4.72;;;;;;;3.55;75.51;94512.75;4998758;28;20209;-68
2022/04/19 05:54:58;;;;;;;5.15;4.75;;;;;;;3.62;75.09;94508.41;5016107;28;20266;-68
2022/04/19 05:57:29;;;;;;;5.40;5.00;;;;;;;3.67;75.02;94503.91;5031390;28;20199;-69
2022/04/19 05:59:58;;;;;;;6.13;5.65;;;;;;;3.71;74.71;94502.19;4998387;28;20199;-69
2022/04/19 06:05:15;;;;;;;7.07;6.50;;;;;;;3.77;75.19;94511.78;5030863;28;20191;-68
2022/04/19 06:07:46;;;;;;;5.15;4.75;;;;;;;3.75;74.89;94509.38;5014437;28;20948;-68
2022/04/19 06:10:15;;;;;;;4.95;4.55;;;;;;;3.79;75.63;94510.34;4998034;28;20230;-68
2022/04/19 06:12:43;;;;;;;4.72;4.43;;;;;;;3.87;75.10;94508.72;4998593;28;20609;-68
2022/04/19 06:15:11;;;;;;;3.90;3.70;;;;;;;3.86;74.87;94507.91;4998030;28;20195;-68
2022/04/19 06:17:41;;;;;;;4.38;4.07;;;;;;;3.88;75.39;94514.97;4998022;28;20203;-68
2022/04/19 06:20:09;;;;;;;4.28;3.97;;;;;;;3.93;75.63;94514.81;4997914;28;20195;-68
2022/04/19 06:22:39;;;;;;;5.78;5.38;;;;;;;4.05;76.11;94517.66;5016059;28;20231;-68
2022/04/19 06:25:08;;;;;;;5.68;5.28;;;;;;;4.15;75.22;94528.25;4998356;28;20242;-68
2022/04/19 06:27:36;;;;;;;4.63;4.32;;;;;;;4.21;74.33;94512.47;4998182;28;20199;-68
2022/04/19 06:30:05;;;;;;;3.63;3.40;;;;;;;4.31;74.68;94517.59;4998048;28;20349;-68
2022/04/19 06:32:33;;;;;;;3.70;3.50;;;;;;;4.34;74.50;94519.66;4998020;28;20254;-68
2022/04/19 06:35:04;;;;;;;3.60;3.30;;;;;;;4.34;73.68;94517.72;5014630;28;20206;-68
2022/04/19 06:37:32;;;;;;;2.75;2.55;;;;;;;4.37;73.84;94526.41;4997932;28;20630;-68
2022/04/19 06:40:07;;;;;;;2.10;2.00;;;;;;;4.37;73.04;94529.16;4997935;28;20195;-68
2022/04/19 06:42:35;;;;;;;2.35;2.25;;;;;;;4.24;72.59;94530.94;4998231;28;20211;-68
2022/04/19 06:45:04;;;;;;;2.33;2.22;;;;;;;4.21;73.73;94526.94;5015577;28;20207;-68
2022/04/19 06:47:31;;;;;;;1.90;1.80;;;;;;;4.20;73.30;94528.06;4998078;28;20210;-69
2022/04/19 06:50:00;;;;;;;2.08;1.98;;;;;;;4.19;72.71;94529.19;4997790;28;20230;-69
2022/04/19 06:52:30;;;;;;;2.45;2.25;;;;;;;4.26;74.06;94534.16;5015397;28;20187;-68
2022/04/19 06:54:58;;;;;;;2.50;2.38;;;;;;;4.30;73.58;94530.44;4998158;28;20258;-68
2022/04/19 06:57:27;;;;;;;1.90;1.80;;;;;;;4.29;72.20;94539.75;5014654;28;20195;-68
2022/04/19 06:59:56;;;;;;;2.42;2.22;;;;;;;4.26;72.46;94539.63;5015241;28;20583;-68
2022/04/19 07:02:24;;;;;;;2.20;2.10;;;;;;;4.21;73.57;94537.03;5015053;28;20198;-68
2022/04/19 07:04:53;;;;;;;2.40;2.30;;;;;;;4.21;73.29;94537.03;5014626;28;20206;-68
2022/04/19 07:07:23;;;;;;;2.67;2.58;;;;;;;4.21;73.56;94543.31;5015321;28;20191;-68
2022/04/19 07:09:53;;;;;;;2.75;2.55;;;;;;;4.25;73.43;94544.28;4998276;28;20273;-69
2022/04/19 07:12:21;;;;;;;3.10;2.90;;;;;;;4.25;73.40;94546.22;4998050;28;20195;-68
2022/04/19 07:14:51;;;;;;;18.27;16.55;;;;;;;4.25;72.54;94547.00;5014850;28;20195;-68
2022/04/19 07:17:19;;;;;;;6.10;5.65;;;;;;;4.28;72.87;94553.72;5016542;28;20192;-68
2022/04/19 07:28:06;;;;;;;2.90;2.70;;;;;;;4.51;72.29;94546.13;5018500;28;20171;-69
2022/04/19 07:30:37;;;;;;;2.75;2.60;;;;;;;4.59;72.55;94551.53;5018460;28;20577;-68
2022/04/19 07:33:05;;;;;;;3.65;3.45;;;;;;;4.62;71.51;94561.03;5001733;28;20203;-68
2022/04/19 07:35:35;;;;;;;4.85;4.55;;;;;;;4.67;71.75;94549.09;5018568;28;20188;-69
2022/04/19 07:38:07;;;;;;;3.85;3.60;;;;;;;4.81;72.51;94547.75;5017957;28;20250;-68
2022/04/19 07:40:36;;;;;;;2.92;2.75;;;;;;;4.87;69.19;94550.31;5001029;28;20294;-68
2022/04/19 07:43:03;;;;;;;2.72;2.53;;;;;;;4.92;70.29;94547.38;5000839;28;20217;-68
2022/04/19 07:45:31;;;;;;;2.30;2.20;;;;;;;4.97;70.40;94545.25;5001134;28;20273;-69
2022/04/19 07:48:03;;;;;;;2.08;1.98;;;;;;;5.09;69.63;94547.28;5018165;28;20191;-69
2022/04/19 07:50:30;;;;;;;2.47;2.33;;;;;;;5.20;69.70;94537.56;5001360;28;20230;-69
2022/04/19 07:52:58;;;;;;;3.47;3.28;;;;;;;5.19;69.11;94546.91;5000539;28;20211;-69
2022/04/19 07:55:27;;;;;;;2.40;2.30;;;;;;;5.19;69.90;94546.91;5000871;28;20199;-69
2022/04/19 07:57:58;;;;;;;4.10;3.80;;;;;;;5.16;69.03;94555.78;5018106;28;20211;-69
2022/04/19 08:00:27;;;;;;;2.80;2.70;;;;;;;5.11;68.25;94547.75;5001294;28;20263;-69
2022/04/19 08:02:56;;;;;;;2.60;2.40;;;;;;;5.10;67.12;94548.88;5018097;28;20235;-69
2022/04/19 08:05:26;;;;;;;2.38;2.28;;;;;;;5.15;67.48;94550.63;5018000;28;20202;-69
2022/04/19 08:07:55;;;;;;;2.88;2.75;;;;;;;5.16;67.25;94544.03;5017634;28;20309;-69
2022/04/19 08:10:23;;;;;;;3.30;3.10;;;;;;;5.27;67.81;94540.56;5000518;28;20218;-69
2022/04/19 08:12:52;;;;;;;2.88;2.67;;;;;;;5.31;65.86;94546.19;5017995;28;20225;-69
2022/04/19 08:15:23;;;;;;;3.08;2.88;;;;;;;5.34;66.28;94541.97;5016579;28;20223;-69
2022/04/19 08:17:55;;;;;;;3.00;2.80;;;;;;;5.40;65.22;94538.69;5000345;28;20238;-69
2022/04/19 08:20:23;;;;;;;2.95;2.75;;;;;;;5.59;65.97;94529.22;5017402;28;20270;-69
2022/04/19 08:22:52;;;;;;;3.00;2.80;;;;;;;5.82;66.96;94533.22;5019564;28;20289;-69
2022/04/19 08:25:20;;;;;;;3.22;2.92;;;;;;;5.95;64.94;94518.47;5036675;28;20701;-69
2022/04/19 08:27:48;;;;;;;2.80;2.70;;;;;;;6.03;65.74;94525.03;5036376;28;20206;-69
2022/04/19 08:30:17;;;;;;;3.20;3.00;;;;;;;6.20;66.17;94533.03;5018862;28;20219;-69
2022/04/19 08:32:47;;;;;;;2.72;2.53;;;;;;;6.12;62.27;94527.66;5036477;28;20202;-69
2022/04/19 08:35:18;;;;;;;3.08;2.88;;;;;;;6.12;63.22;94524.94;5019791;28;20213;-69
2022/04/19 08:37:46;;;;;;;2.58;2.38;;;;;;;6.06;62.43;94532.53;5019989;28;20209;-69
2022/04/19 08:40:20;;;;;;;3.10;2.90;;;;;;;6.07;62.88;94525.94;5036314;28;20191;-69
2022/04/19 08:42:50;;;;;;;2.88;2.67;;;;;;;6.20;61.27;94529.50;5036854;28;20249;-69
2022/04/19 08:45:22;;;;;;;3.30;3.10;;;;;;;6.45;62.17;94527.63;5019914;28;20253;-69
2022/04/19 08:47:50;;;;;;;3.75;3.55;;;;;;;6.65;60.56;94524.00;5019796;28;20313;-69
2022/04/19 08:50:20;;;;;;;2.88;2.67;;;;;;;6.52;59.77;94522.38;5036311;28;20230;-69
2022/04/19 08:57:29;;;;;;;3.13;2.92;;;;;;;6.47;60.73;94512.47;5036757;28;20260;-69
2022/04/19 08:58:27;;;;;;;6.55;6.15;;;;;;;6.88;59.35;94516.13;5036914;28;20252;-69
2022/04/19 09:00:55;;;;;;;3.85;3.65;;;;;;;6.90;58.52;94519.34;5019185;28;20633;-69
2022/04/19 09:03:27;;;;;;;4.10;3.80;;;;;;;6.79;56.40;94517.38;5036832;28;20197;-69
2022/04/19 09:05:55;;;;;;;4.97;4.57;;;;;;;6.88;57.96;94507.91;5019138;28;20206;-69
2022/04/19 09:08:23;;;;;;;4.88;4.57;;;;;;;6.93;58.39;94509.63;5036908;28;20204;-69
2022/04/19 09:11:05;;;;;;;4.15;3.83;;;;;;;6.81;59.49;94509.63;5036584;28;20241;-69
2022/04/19 09:13:33;;;;;;;8.93;8.18;;;;;;;6.83;59.44;94512.84;5036552;28;20220;-69
2022/04/19 09:16:05;;;;;;;9.57;8.77;;;;;;;6.81;60.42;94509.63;5018804;28;20622;-68
2022/04/19 09:18:36;;;;;;;5.40;4.95;;;;;;;6.77;56.49;94506.78;5019167;28;20577;-69
2022/04/19 09:21:05;;;;;;;6.78;6.22;;;;;;;6.89;57.24;94501.28;5036149;28;20230;-69
2022/04/19 09:23:35;;;;;;;4.57;4.28;;;;;;;6.95;57.64;94510.09;5035760;28;20210;-69
2022/04/19 09:26:08;;;;;;;4.30;4.00;;;;;;;7.00;58.95;94507.09;5019025;28;20186;-69
2022/04/19 09:28:38;;;;;;;5.90;5.45;;;;;;;7.06;58.88;94504.94;5036085;28;20705;-69
2022/04/19 09:31:09;;;;;;;5.10;4.80;;;;;;;7.07;55.28;94503.78;5036296;28;20214;-69
2022/04/19 09:33:36;;;;;;;5.32;4.93;;;;;;;7.06;56.52;94502.19;5019005;28;20206;-69
2022/04/19 09:36:05;;;;;;;4.65;4.25;;;;;;;7.22;54.60;94501.13;5018975;28;20222;-69
2022/04/19 09:38:38;;;;;;;4.78;4.45;;;;;;;7.40;57.94;94503.63;5034856;28;20202;-69
2022/04/19 09:41:09;;;;;;;4.78;4.43;;;;;;;7.53;56.78;94507.16;5018108;28;20537;-70
2022/04/19 09:43:37;;;;;;;4.50;4.10;;;;;;;7.60;58.01;94496.38;5035980;28;20187;-69
2022/04/19 09:46:06;;;;;;;5.00;4.60;;;;;;;7.79;55.41;94493.00;5036035;28;20212;-69
2022/04/19 09:48:36;;;;;;;4.30;4.00;;;;;;;8.06;53.30;94497.69;5019103;28;20210;-69
2022/04/19 09:51:09;;;;;;;4.65;4.25;;;;;;;8.39;56.38;94491.94;5018118;28;20218;-69
2022/04/19 09:53:43;;;;;;;4.32;4.03;;;;;;;8.43;54.70;94489.28;5018696;28;20222;-69
2022/04/19 09:56:13;;;;;;;4.40;4.10;;;;;;;8.50;56.15;94480.41;5018290;28;20217;-69
2022/04/19 09:58:43;;;;;;;4.70;4.40;;;;;;;8.71;55.38;94480.94;5036079;28;20194;-69
2022/04/19 10:08:10;;;;;;;6.78;6.28;;;;;;;8.91;52.20;94492.81;5035705;28;20218;-69
2022/04/19 10:09:39;;;;;;;4.45;4.07;;;;;;;9.42;46.85;94470.00;5034759;28;20726;-69
2022/04/19 10:12:10;;;;;;;4.47;4.18;;;;;;;9.37;46.91;94471.09;5018085;28;20222;-69
2022/04/19 10:14:37;;;;;;;4.30;3.92;;;;;;;9.48;47.59;94468.56;5034812;28;20187;-69
2022/04/19 10:17:06;;;;;;;6.43;5.93;;;;;;;9.80;50.76;94463.72;5035459;28;20220;-69
2022/04/19 10:19:36;;;;;;;4.55;4.18;;;;;;;10.12;51.63;94464.34;5018317;28;20221;-69
2022/04/19 10:22:07;;;;;;;3.10;2.90;;;;;;;10.42;47.32;94456.28;5014345;28;20272;-69
2022/04/19 10:24:45;;;;;;;3.70;3.45;;;;;;;10.53;40.26;94462.78;5015446;28;20309;-69
2022/04/19 10:27:19;;;;;;;3.50;3.20;;;;;;;10.66;40.33;94459.84;5035539;28;20174;-69
2022/04/19 10:29:47;;;;;;;3.50;3.20;;;;;;;10.51;38.34;94458.78;5034932;28;20506;-69
2022/04/19 10:32:16;;;;;;;3.10;2.90;;;;;;;10.34;44.74;94460.84;5034852;28;20220;-68
2022/04/19 10:34:44;;;;;;;4.20;3.35;;;;;;;10.27;40.81;94460.72;5034824;28;20584;-68
2022/04/19 10:37:23;;;;;;;3.83;3.53;;;;;;;10.01;39.73;94458.63;5035181;28;20186;-69
2022/04/19 10:39:52;;;;;;;3.53;3.33;;;;;;;9.75;40.75;94453.78;5035343;28;20204;-69
2022/04/19 10:42:32;;;;;;;3.80;3.50;;;;;;;9.45;40.86;94459.06;5018006;28;20198;-69
2022/04/19 10:45:20;;;;;;;3.33;3.08;;;;;;;9.21;41.53;94456.56;5034286;28;20202;-69
2022/04/19 10:48:06;;;;;;;3.45;3.00;;;;;;;9.17;44.22;94459.22;5034834;28;20225;-69
2022/04/19 10:50:39;;;;;;;3.00;2.80;;;;;;;9.27;42.92;94458.69;5034892;28;20197;-69
2022/04/19 10:53:08;;;;;;;3.40;3.10;;;;;;;9.38;41.23;94459.72;5037648;28;20594;-69
2022/04/19 10:55:40;;;;;;;4.22;3.92;;;;;;;9.62;42.27;94455.09;5022119;28;20194;-69
2022/04/19 10:58:17;;;;;;;3.47;3.25;;;;;;;10.08;42.16;94455.22;5038591;28;20617;-69
2022/04/19 11:00:54;;;;;;;2.90;2.70;;;;;;;10.22;39.25;94449.19;5021926;28;20190;-69
2022/04/19 11:03:46;;;;;;;2.85;2.65;;;;;;;10.26;40.17;94452.84;5038925;28;20590;-69
2022/04/19 11:06:33;;;;;;;2.90;2.70;;;;;;;10.46;40.90;94454.38;5039010;28;20190;-69
2022/04/19 11:09:23;;;;;;;3.05;2.85;;;;;;;10.40;39.01;94450.34;5038800;28;20196;-69
2022/04/19 11:11:52;;;;;;;3.75;2.67;;;;;;;10.11;40.80;94451.75;5033007;28;20222;-69
2022/04/19 11:14:41;;;;;;;3.28;2.97;;;;;;;9.94;42.57;94446.69;5021332;28;20229;-69
2022/04/19 11:17:22;;;;;;;3.15;2.95;;;;;;;9.73;42.97;94447.03;5037885;28;20268;-69
2022/04/19 11:19:53;;;;;;;3.15;2.95;;;;;;;9.59;39.46;94448.38;5037937;28;20256;-69
2022/04/19 11:22:46;;;;;;;3.20;3.00;;;;;;;9.40;39.50;94442.81;5020765;28;20332;-69
2022/04/19 11:25:14;;;;;;;2.90;2.70;;;;;;;9.27;39.59;94439.41;5021259;28;20260;-69
2022/04/19 11:28:18;;;;;;;2.70;2.60;;;;;;;9.43;39.42;94435.81;5038378;28;20548;-69
2022/04/19 11:31:09;;;;;;;6.80;4.68;;;;;;;9.43;37.97;94428.34;5037556;28;20288;-69
2022/04/19 11:33:38;;;;;;;16.27;7.00;;;;;;;9.44;39.90;94440.97;5038149;28;20198;-69
2022/04/19 11:36:07;;;;;;;3.33;3.03;;;;;;;9.48;38.30;94433.56;5038192;28;20234;-69
2022/04/19 11:38:36;;;;;;;2.95;2.75;;;;;;;9.37;38.28;94435.31;5021065;28;20195;-69
2022/04/19 11:46:47;;;;;;;4.50;4.20;;;;;;;9.05;38.75;94462.09;5037700;28;20652;-69
2022/04/19 11:49:35;;;;;;;5.90;5.40;;;;;;;8.79;39.63;94460.72;5020646;28;20613;-69
2022/04/19 11:52:04;;;;;;;4.13;3.70;;;;;;;8.64;41.84;94462.34;5037781;28;20203;-69
2022/04/19 11:54:33;;;;;;;3.40;3.10;;;;;;;8.50;43.11;94467.47;5020358;28;20242;-69
2022/04/19 11:57:05;;;;;;;3.25;3.03;;;;;;;8.36;44.20;94458.84;5020521;28;20297;-69
2022/04/19 11:59:36;;;;;;;4.00;3.72;;;;;;;8.48;45.82;94456.03;5037208;28;20637;-68
2022/04/19 12:02:14;;;;;;;4.30;3.60;;;;;;;8.51;44.82;94447.06;5020248;28;20198;-68
2022/04/19 12:04:50;;;;;;;3.30;3.10;;;;;;;8.62;46.14;94453.63;5020891;28;20206;-68
2022/04/19 12:07:20;;;;;;;3.45;3.15;;;;;;;8.73;44.78;94453.88;5020726;28;20230;-68
2022/04/19 12:09:51;;;;;;;3.20;2.90;;;;;;;8.83;44.53;94444.31;5020405;28;20248;-69
2022/04/19 12:12:20;;;;;;;3.00;2.80;;;;;;;9.17;43.60;94442.72;5020224;28;20214;-69
2022/04/19 12:14:52;;;;;;;2.65;2.45;;;;;;;9.63;44.47;94427.22;5037887;28;20253;-69
2022/04/19 12:17:22;;;;;;;2.75;2.55;;;;;;;10.02;44.02;94429.13;5037657;28;20178;-69
2022/04/19 12:20:01;;;;;;;2.40;2.30;;;;;;;10.13;39.80;94422.66;5037884;28;20204;-68
2022/04/19 12:22:29;;;;;;;68.53;18.88;;;;;;;10.11;40.07;94413.97;5020429;28;20237;-69
2022/04/19 12:24:58;;;;;;;8.93;4.05;;;;;;;10.36;40.89;94416.41;5019957;28;20205;-69
2022/04/19 12:27:28;;;;;;;55.88;16.02;;;;;;;10.69;41.14;94415.78;5037375;28;20582;-69
2022/04/19 12:29:58;;;;;;;5.88;3.33;;;;;;;10.77;36.67;94408.41;5020118;28;20198;-69
2022/04/19 12:32:28;;;;;;;2.40;2.30;;;;;;;10.58;36.59;94404.56;5019676;28;20653;-69